sensor_id;sensor_type;location;lat;lon;timestamp;pressure;altitude;pressure_sealevel;temperature;humidity
13013;BME280;22580;57.670;12.006;2023-08-24T00:02:01;101223.78;;;32.31;38.82
13013;BME280;22580;57.670;12.006;2023-08-24T00:04:29;101215.59;;;32.36;39.28
13013;BME280;22580;57.670;12.006;2023-08-24T00:06:59;101215.72;;;32.30;38.58
13013;BME280;22580;57.670;12.006;2023-08-24T00:09:27;101220.75;;;32.33;38.66
13013;BME280;22580;57.670;12.006;2023-08-24T00:11:56;101221.34;;;31.58;40.21
13013;BME280;22580;57.670;12.006;2023-08-24T00:14:23;101216.53;;;31.23;40.92
13013;BME280;22580;57.670;12.006;2023-08-24T00:16:51;101218.69;;;32.16;39.08
13013;BME280;22580;57.670;12.006;2023-08-24T00:19:18;101217.75;;;31.57;40.11
13013;BME280;22580;57.670;12.006;2023-08-24T00:21:45;101212.56;;;31.91;39.70
13013;BME280;22580;57.670;12.006;2023-08-24T00:24:12;101213.03;;;31.88;39.07
13013;BME280;22580;57.670;12.006;2023-08-24T00:26:39;101208.47;;;31.93;38.67
13013;BME280;22580;57.670;12.006;2023-08-24T00:29:06;101208.69;;;31.69;39.24
13013;BME280;22580;57.670;12.006;2023-08-24T00:31:32;101210.91;;;32.25;38.97
13013;BME280;22580;57.670;12.006;2023-08-24T00:34:01;101200.50;;;32.67;38.06
13013;BME280;22580;57.670;12.006;2023-08-24T00:36:27;101205.09;;;32.62;37.99
13013;BME280;22580;57.670;12.006;2023-08-24T00:38:55;101190.63;;;32.71;37.43
13013;BME280;22580;57.670;12.006;2023-08-24T00:41:22;101189.59;;;32.14;38.46
13013;BME280;22580;57.670;12.006;2023-08-24T00:43:50;101197.50;;;31.75;38.66
13013;BME280;22580;57.670;12.006;2023-08-24T00:46:18;101194.44;;;31.65;39.18
13013;BME280;22580;57.670;12.006;2023-08-24T00:48:45;101200.16;;;31.10;40.29
13013;BME280;22580;57.670;12.006;2023-08-24T00:51:14;101199.50;;;31.26;39.87
13013;BME280;22580;57.670;12.006;2023-08-24T00:53:41;101187.88;;;31.06;39.68
13013;BME280;22580;57.670;12.006;2023-08-24T00:56:08;101190.78;;;31.11;40.12
13013;BME280;22580;57.670;12.006;2023-08-24T00:58:35;101206.47;;;30.62;40.11
13013;BME280;22580;57.670;12.006;2023-08-24T01:01:03;101206.94;;;31.14;39.44
13013;BME280;22580;57.670;12.006;2023-08-24T01:03:31;101196.53;;;31.70;38.70
13013;BME280;22580;57.670;12.006;2023-08-24T01:05:58;101196.13;;;31.66;38.87
13013;BME280;22580;57.670;12.006;2023-08-24T01:08:27;101199.38;;;30.48;40.08
13013;BME280;22580;57.670;12.006;2023-08-24T01:10:59;101209.28;;;30.56;40.65
13013;BME280;22580;57.670;12.006;2023-08-24T01:13:31;101203.94;;;31.27;39.54
13013;BME280;22580;57.670;12.006;2023-08-24T01:16:04;101209.78;;;30.71;39.83
13013;BME280;22580;57.670;12.006;2023-08-24T01:18:33;101205.66;;;30.37;40.83
13013;BME280;22580;57.670;12.006;2023-08-24T01:21:01;101204.00;;;30.54;40.54
13013;BME280;22580;57.670;12.006;2023-08-24T01:23:37;101204.38;;;30.21;40.86
13013;BME280;22580;57.670;12.006;2023-08-24T01:26:12;101208.63;;;30.60;39.65
13013;BME280;22580;57.670;12.006;2023-08-24T01:28:40;101213.66;;;30.45;39.21
13013;BME280;22580;57.670;12.006;2023-08-24T01:31:08;101199.06;;;30.38;39.75
13013;BME280;22580;57.670;12.006;2023-08-24T01:33:35;101201.22;;;30.54;39.04
13013;BME280;22580;57.670;12.006;2023-08-24T01:36:02;101196.03;;;30.28;39.94
13013;BME280;22580;57.670;12.006;2023-08-24T01:38:30;101194.59;;;30.62;39.70
13013;BME280;22580;57.670;12.006;2023-08-24T01:41:03;101197.06;;;30.70;39.06
13013;BME280;22580;57.670;12.006;2023-08-24T01:43:35;101195.91;;;30.59;39.07
13013;BME280;22580;57.670;12.006;2023-08-24T01:46:04;101194.41;;;29.95;39.87
13013;BME280;22580;57.670;12.006;2023-08-24T01:48:32;101186.97;;;29.46;40.94
13013;BME280;22580;57.670;12.006;2023-08-24T01:51:01;101186.56;;;29.92;40.10
13013;BME280;22580;57.670;12.006;2023-08-24T01:53:31;101202.16;;;30.48;38.96
13013;BME280;22580;57.670;12.006;2023-08-24T01:55:58;101196.31;;;30.20;39.29
13013;BME280;22580;57.670;12.006;2023-08-24T01:58:25;101200.25;;;30.30;39.40
13013;BME280;22580;57.670;12.006;2023-08-24T02:00:53;101196.56;;;30.18;39.02
13013;BME280;22580;57.670;12.006;2023-08-24T02:03:20;101198.00;;;30.21;38.83
13013;BME280;22580;57.670;12.006;2023-08-24T02:05:47;101189.25;;;30.06;39.30
13013;BME280;22580;57.670;12.006;2023-08-24T02:08:14;101186.72;;;30.65;38.22
13013;BME280;22580;57.670;12.006;2023-08-24T02:10:41;101179.03;;;30.31;38.97
13013;BME280;22580;57.670;12.006;2023-08-24T02:13:08;101181.25;;;30.59;38.30
13013;BME280;22580;57.670;12.006;2023-08-24T02:15:37;101181.16;;;30.47;38.47
13013;BME280;22580;57.670;12.006;2023-08-24T02:18:06;101182.53;;;30.38;38.63
13013;BME280;22580;57.670;12.006;2023-08-24T02:20:34;101181.88;;;30.79;38.45
13013;BME280;22580;57.670;12.006;2023-08-24T02:23:02;101164.25;;;30.62;38.30
13013;BME280;22580;57.670;12.006;2023-08-24T02:25:29;101179.63;;;30.88;38.16
13013;BME280;22580;57.670;12.006;2023-08-24T02:27:56;101184.06;;;31.07;37.61
13013;BME280;22580;57.670;12.006;2023-08-24T02:30:23;101188.66;;;30.95;37.46
13013;BME280;22580;57.670;12.006;2023-08-24T02:32:50;101185.53;;;30.91;37.51
13013;BME280;22580;57.670;12.006;2023-08-24T02:35:18;101196.03;;;30.46;38.59
13013;BME280;22580;57.670;12.006;2023-08-24T02:37:45;101187.91;;;30.51;38.43
13013;BME280;22580;57.670;12.006;2023-08-24T02:40:12;101183.59;;;30.55;38.74
13013;BME280;22580;57.670;12.006;2023-08-24T02:42:38;101189.81;;;30.51;38.42
13013;BME280;22580;57.670;12.006;2023-08-24T02:45:06;101176.50;;;30.66;38.27
13013;BME280;22580;57.670;12.006;2023-08-24T02:47:33;101187.75;;;31.01;37.73
13013;BME280;22580;57.670;12.006;2023-08-24T02:50:02;101198.66;;;30.78;37.87
13013;BME280;22580;57.670;12.006;2023-08-24T02:52:31;101192.41;;;30.09;39.40
13013;BME280;22580;57.670;12.006;2023-08-24T02:54:58;101191.56;;;30.45;38.44
13013;BME280;22580;57.670;12.006;2023-08-24T02:57:25;101184.41;;;30.62;38.31
13013;BME280;22580;57.670;12.006;2023-08-24T02:59:52;101192.03;;;30.24;39.17
13013;BME280;22580;57.670;12.006;2023-08-24T03:02:18;101190.44;;;29.60;39.81
13013;BME280;22580;57.670;12.006;2023-08-24T03:04:45;101186.41;;;30.74;37.93
13013;BME280;22580;57.670;12.006;2023-08-24T03:07:12;101168.19;;;30.11;39.27
13013;BME280;22580;57.670;12.006;2023-08-24T03:09:40;101189.34;;;29.92;39.32
13013;BME280;22580;57.670;12.006;2023-08-24T03:12:08;101185.47;;;30.00;39.36
13013;BME280;22580;57.670;12.006;2023-08-24T03:14:35;101181.53;;;30.51;38.52
13013;BME280;22580;57.670;12.006;2023-08-24T03:17:02;101185.13;;;30.51;38.20
13013;BME280;22580;57.670;12.006;2023-08-24T03:19:30;101188.91;;;30.57;38.35
13013;BME280;22580;57.670;12.006;2023-08-24T03:21:57;101183.47;;;30.69;38.25
13013;BME280;22580;57.670;12.006;2023-08-24T03:24:24;101190.53;;;30.64;38.30
13013;BME280;22580;57.670;12.006;2023-08-24T03:26:52;101187.91;;;30.33;39.17
13013;BME280;22580;57.670;12.006;2023-08-24T03:29:20;101190.03;;;30.13;39.15
13013;BME280;22580;57.670;12.006;2023-08-24T03:31:47;101177.59;;;29.47;40.53
13013;BME280;22580;57.670;12.006;2023-08-24T03:34:14;101182.72;;;30.00;39.64
13013;BME280;22580;57.670;12.006;2023-08-24T03:36:42;101171.84;;;29.80;39.81
13013;BME280;22580;57.670;12.006;2023-08-24T03:39:08;101181.22;;;30.22;39.37
13013;BME280;22580;57.670;12.006;2023-08-24T03:41:36;101180.31;;;30.47;38.87
13013;BME280;22580;57.670;12.006;2023-08-24T03:44:05;101192.50;;;30.21;39.53
13013;BME280;22580;57.670;12.006;2023-08-24T03:46:32;101187.81;;;29.72;40.41
13013;BME280;22580;57.670;12.006;2023-08-24T03:49:01;101190.28;;;30.29;39.05
13013;BME280;22580;57.670;12.006;2023-08-24T03:51:27;101185.44;;;30.25;38.94
13013;BME280;22580;57.670;12.006;2023-08-24T03:53:57;101187.56;;;30.05;39.08
13013;BME280;22580;57.670;12.006;2023-08-24T03:56:25;101200.22;;;30.12;39.10
13013;BME280;22580;57.670;12.006;2023-08-24T03:58:52;101197.34;;;30.00;39.97
13013;BME280;22580;57.670;12.006;2023-08-24T04:01:20;101196.00;;;30.10;39.47
13013;BME280;22580;57.670;12.006;2023-08-24T04:03:47;101189.72;;;29.96;39.89
13013;BME280;22580;57.670;12.006;2023-08-24T04:06:17;101189.09;;;30.00;39.93
13013;BME280;22580;57.670;12.006;2023-08-24T04:08:44;101190.00;;;29.88;39.56
13013;BME280;22580;57.670;12.006;2023-08-24T04:11:11;101191.59;;;30.27;38.83
13013;BME280;22580;57.670;12.006;2023-08-24T04:13:38;101188.66;;;29.97;39.89
13013;BME280;22580;57.670;12.006;2023-08-24T04:16:05;101192.16;;;30.11;39.97
13013;BME280;22580;57.670;12.006;2023-08-24T04:18:33;101187.75;;;30.28;39.69
13013;BME280;22580;57.670;12.006;2023-08-24T04:21:00;101168.72;;;30.38;38.51
13013;BME280;22580;57.670;12.006;2023-08-24T04:23:27;101185.69;;;30.23;39.08
13013;BME280;22580;57.670;12.006;2023-08-24T04:25:58;101181.91;;;29.93;39.61
13013;BME280;22580;57.670;12.006;2023-08-24T04:28:24;101193.25;;;30.10;39.79
13013;BME280;22580;57.670;12.006;2023-08-24T04:30:53;101189.69;;;30.03;40.22
13013;BME280;22580;57.670;12.006;2023-08-24T04:33:21;101182.06;;;29.73;39.99
13013;BME280;22580;57.670;12.006;2023-08-24T04:35:50;101171.19;;;29.22;40.63
13013;BME280;22580;57.670;12.006;2023-08-24T04:38:17;101193.19;;;29.60;40.73
13013;BME280;22580;57.670;12.006;2023-08-24T04:40:47;101187.19;;;29.69;40.16
13013;BME280;22580;57.670;12.006;2023-08-24T04:43:15;101190.78;;;29.95;39.61
13013;BME280;22580;57.670;12.006;2023-08-24T04:45:42;101195.31;;;30.14;38.97
13013;BME280;22580;57.670;12.006;2023-08-24T04:48:09;101190.78;;;30.02;39.58
13013;BME280;22580;57.670;12.006;2023-08-24T04:50:36;101193.00;;;30.11;39.46
13013;BME280;22580;57.670;12.006;2023-08-24T04:53:05;101190.19;;;29.93;40.15
13013;BME280;22580;57.670;12.006;2023-08-24T04:55:32;101191.97;;;29.81;40.05
13013;BME280;22580;57.670;12.006;2023-08-24T04:57:59;101196.66;;;29.80;39.67
13013;BME280;22580;57.670;12.006;2023-08-24T05:00:26;101195.50;;;29.31;40.29
13013;BME280;22580;57.670;12.006;2023-08-24T05:02:53;101190.22;;;29.30;40.89
13013;BME280;22580;57.670;12.006;2023-08-24T05:05:20;101190.19;;;28.98;41.12
13013;BME280;22580;57.670;12.006;2023-08-24T05:07:47;101182.81;;;29.30;40.93
13013;BME280;22580;57.670;12.006;2023-08-24T05:10:15;101189.84;;;29.83;39.90
13013;BME280;22580;57.670;12.006;2023-08-24T05:12:43;101190.13;;;29.99;39.40
13013;BME280;22580;57.670;12.006;2023-08-24T05:15:10;101195.47;;;29.94;40.06
13013;BME280;22580;57.670;12.006;2023-08-24T05:17:39;101191.81;;;29.76;40.71
13013;BME280;22580;57.670;12.006;2023-08-24T05:20:07;101189.44;;;29.79;40.83
13013;BME280;22580;57.670;12.006;2023-08-24T05:22:35;101192.03;;;29.99;40.11
13013;BME280;22580;57.670;12.006;2023-08-24T05:25:03;101180.63;;;29.95;40.53
13013;BME280;22580;57.670;12.006;2023-08-24T05:27:32;101179.16;;;29.93;40.53
13013;BME280;22580;57.670;12.006;2023-08-24T05:29:59;101155.31;;;29.80;40.43
13013;BME280;22580;57.670;12.006;2023-08-24T05:32:26;101174.81;;;29.22;40.70
13013;BME280;22580;57.670;12.006;2023-08-24T05:34:53;101175.28;;;30.00;40.23
13013;BME280;22580;57.670;12.006;2023-08-24T05:37:20;101177.59;;;29.47;40.54
13013;BME280;22580;57.670;12.006;2023-08-24T05:39:47;101169.22;;;29.35;40.98
13013;BME280;22580;57.670;12.006;2023-08-24T05:42:14;101170.69;;;29.00;41.73
13013;BME280;22580;57.670;12.006;2023-08-24T05:44:42;101166.28;;;29.30;41.28
13013;BME280;22580;57.670;12.006;2023-08-24T05:47:09;101138.63;;;28.67;41.80
13013;BME280;22580;57.670;12.006;2023-08-24T05:49:42;101161.91;;;29.16;41.75
13013;BME280;22580;57.670;12.006;2023-08-24T05:52:09;101167.53;;;29.34;41.97
13013;BME280;22580;57.670;12.006;2023-08-24T05:54:40;101175.19;;;27.77;44.39
13013;BME280;22580;57.670;12.006;2023-08-24T05:57:07;101175.81;;;28.90;42.80
13013;BME280;22580;57.670;12.006;2023-08-24T05:59:33;101168.00;;;29.25;42.08
13013;BME280;22580;57.670;12.006;2023-08-24T06:02:02;101186.06;;;29.14;42.30
13013;BME280;22580;57.670;12.006;2023-08-24T06:04:30;101154.84;;;28.95;42.34
13013;BME280;22580;57.670;12.006;2023-08-24T06:06:57;101167.59;;;29.21;41.40
13013;BME280;22580;57.670;12.006;2023-08-24T06:09:24;101163.16;;;29.52;41.01
13013;BME280;22580;57.670;12.006;2023-08-24T06:11:51;101164.53;;;29.43;40.86
13013;BME280;22580;57.670;12.006;2023-08-24T06:14:18;101155.44;;;29.42;41.34
13013;BME280;22580;57.670;12.006;2023-08-24T06:16:45;101167.19;;;29.18;41.20
13013;BME280;22580;57.670;12.006;2023-08-24T06:19:15;101168.38;;;29.35;41.05
13013;BME280;22580;57.670;12.006;2023-08-24T06:21:42;101145.50;;;29.34;41.01
13013;BME280;22580;57.670;12.006;2023-08-24T06:24:09;101159.47;;;29.01;42.00
13013;BME280;22580;57.670;12.006;2023-08-24T06:26:36;101163.88;;;29.41;41.51
13013;BME280;22580;57.670;12.006;2023-08-24T06:29:03;101137.81;;;29.12;41.61
13013;BME280;22580;57.670;12.006;2023-08-24T06:31:30;101166.00;;;29.45;41.10
13013;BME280;22580;57.670;12.006;2023-08-24T06:33:58;101163.31;;;28.94;42.91
13013;BME280;22580;57.670;12.006;2023-08-24T06:36:27;101167.44;;;29.48;42.22
13013;BME280;22580;57.670;12.006;2023-08-24T06:38:55;101162.22;;;29.64;41.88
13013;BME280;22580;57.670;12.006;2023-08-24T06:41:22;101166.75;;;30.09;40.68
13013;BME280;22580;57.670;12.006;2023-08-24T06:43:49;101173.72;;;30.11;40.22
13013;BME280;22580;57.670;12.006;2023-08-24T06:46:15;101158.34;;;29.97;41.44
13013;BME280;22580;57.670;12.006;2023-08-24T06:48:44;101159.28;;;31.01;39.20
13013;BME280;22580;57.670;12.006;2023-08-24T06:51:11;101167.13;;;30.49;39.45
13013;BME280;22580;57.670;12.006;2023-08-24T06:53:39;101169.03;;;30.48;38.87
13013;BME280;22580;57.670;12.006;2023-08-24T06:56:07;101168.56;;;29.65;40.27
13013;BME280;22580;57.670;12.006;2023-08-24T06:58:35;101190.81;;;30.56;39.04
13013;BME280;22580;57.670;12.006;2023-08-24T07:01:02;101185.38;;;30.50;39.69
13013;BME280;22580;57.670;12.006;2023-08-24T07:03:31;101182.59;;;31.05;38.65
13013;BME280;22580;57.670;12.006;2023-08-24T07:05:59;101173.59;;;29.75;39.88
13013;BME280;22580;57.670;12.006;2023-08-24T07:08:26;101191.22;;;30.60;39.24
13013;BME280;22580;57.670;12.006;2023-08-24T07:10:56;101184.66;;;31.09;38.60
13013;BME280;22580;57.670;12.006;2023-08-24T07:13:23;101153.63;;;31.14;37.72
13013;BME280;22580;57.670;12.006;2023-08-24T07:15:52;101192.28;;;30.95;38.75
13013;BME280;22580;57.670;12.006;2023-08-24T07:18:18;101188.22;;;30.80;37.98
13013;BME280;22580;57.670;12.006;2023-08-24T07:20:45;101188.47;;;30.78;38.27
13013;BME280;22580;57.670;12.006;2023-08-24T07:23:12;101183.41;;;31.23;36.71
13013;BME280;22580;57.670;12.006;2023-08-24T07:25:39;101183.09;;;30.65;37.15
13013;BME280;22580;57.670;12.006;2023-08-24T07:28:08;101176.41;;;29.43;39.19
13013;BME280;22580;57.670;12.006;2023-08-24T07:30:35;101192.50;;;30.21;38.17
13013;BME280;22580;57.670;12.006;2023-08-24T07:33:03;101189.13;;;28.99;40.00
13013;BME280;22580;57.670;12.006;2023-08-24T07:35:30;101193.09;;;29.73;39.57
13013;BME280;22580;57.670;12.006;2023-08-24T07:37:57;101185.41;;;30.07;38.70
13013;BME280;22580;57.670;12.006;2023-08-24T07:40:25;101193.56;;;30.38;38.03
13013;BME280;22580;57.670;12.006;2023-08-24T07:42:53;101199.38;;;30.48;37.97
13013;BME280;22580;57.670;12.006;2023-08-24T07:45:23;101207.47;;;30.68;37.44
13013;BME280;22580;57.670;12.006;2023-08-24T07:47:50;101209.59;;;31.03;36.67
13013;BME280;22580;57.670;12.006;2023-08-24T07:50:17;101218.44;;;30.75;37.05
13013;BME280;22580;57.670;12.006;2023-08-24T07:52:44;101208.44;;;30.55;37.24
13013;BME280;22580;57.670;12.006;2023-08-24T07:55:11;101206.13;;;30.16;37.94
13013;BME280;22580;57.670;12.006;2023-08-24T07:57:38;101201.63;;;30.21;38.09
13013;BME280;22580;57.670;12.006;2023-08-24T08:00:08;101214.09;;;30.42;38.00
13013;BME280;22580;57.670;12.006;2023-08-24T08:02:37;101216.03;;;29.35;38.93
13013;BME280;22580;57.670;12.006;2023-08-24T08:05:05;101224.69;;;29.01;40.82
13013;BME280;22580;57.670;12.006;2023-08-24T08:07:33;101213.47;;;29.97;39.15
13013;BME280;22580;57.670;12.006;2023-08-24T08:10:00;101222.22;;;30.19;37.07
13013;BME280;22580;57.670;12.006;2023-08-24T08:12:28;101202.22;;;30.42;36.81
13013;BME280;22580;57.670;12.006;2023-08-24T08:14:57;101234.34;;;30.54;37.03
13013;BME280;22580;57.670;12.006;2023-08-24T08:17:24;101228.94;;;30.66;36.69
13013;BME280;22580;57.670;12.006;2023-08-24T08:19:55;101209.41;;;30.68;36.29
13013;BME280;22580;57.670;12.006;2023-08-24T08:22:22;101228.78;;;30.97;36.14
13013;BME280;22580;57.670;12.006;2023-08-24T08:24:51;101224.13;;;31.28;35.60
13013;BME280;22580;57.670;12.006;2023-08-24T08:27:19;101206.78;;;30.91;35.95
13013;BME280;22580;57.670;12.006;2023-08-24T08:29:49;101198.31;;;31.34;36.55
13013;BME280;22580;57.670;12.006;2023-08-24T08:32:20;101232.06;;;31.66;36.35
13013;BME280;22580;57.670;12.006;2023-08-24T08:34:47;101234.34;;;31.27;36.30
13013;BME280;22580;57.670;12.006;2023-08-24T08:37:16;101217.56;;;31.41;36.51
13013;BME280;22580;57.670;12.006;2023-08-24T08:39:42;101232.28;;;31.53;36.20
13013;BME280;22580;57.670;12.006;2023-08-24T08:42:11;101227.25;;;31.61;35.89
13013;BME280;22580;57.670;12.006;2023-08-24T08:44:41;101239.38;;;31.60;35.46
13013;BME280;22580;57.670;12.006;2023-08-24T08:47:09;101231.16;;;31.42;35.19
13013;BME280;22580;57.670;12.006;2023-08-24T08:49:37;101235.97;;;31.77;35.60
13013;BME280;22580;57.670;12.006;2023-08-24T08:52:08;101244.81;;;31.67;35.86
13013;BME280;22580;57.670;12.006;2023-08-24T08:54:37;101251.16;;;31.86;35.90
13013;BME280;22580;57.670;12.006;2023-08-24T08:57:04;101232.78;;;32.03;35.63
13013;BME280;22580;57.670;12.006;2023-08-24T08:59:32;101252.38;;;31.30;35.89
13013;BME280;22580;57.670;12.006;2023-08-24T09:02:00;101257.47;;;31.45;36.34
13013;BME280;22580;57.670;12.006;2023-08-24T09:04:29;101252.88;;;31.39;35.93
13013;BME280;22580;57.670;12.006;2023-08-24T09:06:57;101251.34;;;30.94;36.18
13013;BME280;22580;57.670;12.006;2023-08-24T09:09:27;101256.16;;;30.81;36.78
13013;BME280;22580;57.670;12.006;2023-08-24T09:11:59;101250.66;;;30.38;37.90
13013;BME280;22580;57.670;12.006;2023-08-24T09:14:26;101198.22;;;30.38;37.19
13013;BME280;22580;57.670;12.006;2023-08-24T09:16:53;101243.69;;;31.56;35.92
13013;BME280;22580;57.670;12.006;2023-08-24T09:19:27;101244.28;;;31.77;35.59
13013;BME280;22580;57.670;12.006;2023-08-24T09:21:57;101233.94;;;31.84;35.02
13013;BME280;22580;57.670;12.006;2023-08-24T09:24:32;101237.47;;;32.03;34.71
13013;BME280;22580;57.670;12.006;2023-08-24T09:27:05;101231.91;;;31.91;35.14
13013;BME280;22580;57.670;12.006;2023-08-24T09:29:49;101247.25;;;31.45;35.81
13013;BME280;22580;57.670;12.006;2023-08-24T09:32:22;101235.91;;;31.05;35.81
13013;BME280;22580;57.670;12.006;2023-08-24T09:34:49;101238.28;;;30.65;37.35
13013;BME280;22580;57.670;12.006;2023-08-24T09:37:17;101244.44;;;30.85;37.03
13013;BME280;22580;57.670;12.006;2023-08-24T09:39:45;101251.56;;;30.93;36.25
13013;BME280;22580;57.670;12.006;2023-08-24T09:42:14;101253.41;;;30.81;36.35
13013;BME280;22580;57.670;12.006;2023-08-24T09:44:43;101251.03;;;30.84;35.76
13013;BME280;22580;57.670;12.006;2023-08-24T09:47:11;101249.25;;;30.72;36.24
13013;BME280;22580;57.670;12.006;2023-08-24T09:49:38;101240.75;;;30.73;36.05
13013;BME280;22580;57.670;12.006;2023-08-24T09:52:07;101233.00;;;31.18;35.90
13013;BME280;22580;57.670;12.006;2023-08-24T09:54:37;101240.34;;;31.06;35.05
13013;BME280;22580;57.670;12.006;2023-08-24T09:57:06;101217.13;;;30.95;35.01
13013;BME280;22580;57.670;12.006;2023-08-24T09:59:39;101242.81;;;30.96;35.65
13013;BME280;22580;57.670;12.006;2023-08-24T10:02:15;101236.22;;;30.97;36.57
13013;BME280;22580;57.670;12.006;2023-08-24T10:04:43;101238.75;;;30.80;37.19
13013;BME280;22580;57.670;12.006;2023-08-24T10:07:11;101247.16;;;31.22;37.04
13013;BME280;22580;57.670;12.006;2023-08-24T10:09:47;101229.28;;;31.24;35.77
13013;BME280;22580;57.670;12.006;2023-08-24T10:12:23;101234.31;;;30.97;35.58
13013;BME280;22580;57.670;12.006;2023-08-24T10:14:58;101217.75;;;31.27;35.33
13013;BME280;22580;57.670;12.006;2023-08-24T10:17:29;101224.81;;;32.18;34.95
13013;BME280;22580;57.670;12.006;2023-08-24T10:19:58;101231.41;;;31.82;34.61
13013;BME280;22580;57.670;12.006;2023-08-24T10:22:30;101196.63;;;31.03;34.43
13013;BME280;22580;57.670;12.006;2023-08-24T10:24:58;101192.81;;;31.34;34.89
13013;BME280;22580;57.670;12.006;2023-08-24T10:27:27;101221.34;;;32.00;34.24
13013;BME280;22580;57.670;12.006;2023-08-24T10:29:57;101225.09;;;32.29;34.00
13013;BME280;22580;57.670;12.006;2023-08-24T10:32:25;101211.13;;;32.47;33.38
13013;BME280;22580;57.670;12.006;2023-08-24T10:34:52;101232.66;;;32.80;32.59
13013;BME280;22580;57.670;12.006;2023-08-24T10:37:25;101232.63;;;32.92;32.41
13013;BME280;22580;57.670;12.006;2023-08-24T10:39:52;101228.91;;;33.14;31.88
13013;BME280;22580;57.670;12.006;2023-08-24T10:42:19;101201.00;;;32.76;31.79
13013;BME280;22580;57.670;12.006;2023-08-24T10:44:47;101219.88;;;32.09;33.95
13013;BME280;22580;57.670;12.006;2023-08-24T10:47:22;101228.94;;;32.51;33.27
13013;BME280;22580;57.670;12.006;2023-08-24T10:49:58;101201.28;;;32.39;32.83
13013;BME280;22580;57.670;12.006;2023-08-24T10:52:30;101229.38;;;32.13;32.88
13013;BME280;22580;57.670;12.006;2023-08-24T10:55:00;101221.94;;;32.13;33.49
13013;BME280;22580;57.670;12.006;2023-08-24T10:57:35;101211.81;;;32.66;32.76
13013;BME280;22580;57.670;12.006;2023-08-24T11:00:07;101215.69;;;31.53;33.63
13013;BME280;22580;57.670;12.006;2023-08-24T11:02:51;101226.75;;;31.23;34.11
13013;BME280;22580;57.670;12.006;2023-08-24T11:05:21;101239.75;;;31.04;34.45
13013;BME280;22580;57.670;12.006;2023-08-24T11:07:51;101230.47;;;30.62;35.00
13013;BME280;22580;57.670;12.006;2023-08-24T11:10:19;101235.28;;;31.21;33.68
13013;BME280;22580;57.670;12.006;2023-08-24T11:13:07;101230.09;;;31.13;34.17
13013;BME280;22580;57.670;12.006;2023-08-24T11:15:37;101233.06;;;31.12;34.63
13013;BME280;22580;57.670;12.006;2023-08-24T11:18:20;101227.94;;;32.22;32.71
13013;BME280;22580;57.670;12.006;2023-08-24T11:20:49;101216.53;;;32.07;32.29
13013;BME280;22580;57.670;12.006;2023-08-24T11:23:17;101219.91;;;32.55;32.59
13013;BME280;22580;57.670;12.006;2023-08-24T11:25:45;101233.84;;;32.84;32.43
13013;BME280;22580;57.670;12.006;2023-08-24T11:28:17;101236.25;;;32.92;32.10
13013;BME280;22580;57.670;12.006;2023-08-24T11:30:44;101238.19;;;32.92;31.69
13013;BME280;22580;57.670;12.006;2023-08-24T11:33:11;101231.09;;;32.84;31.95
13013;BME280;22580;57.670;12.006;2023-08-24T11:35:42;101233.78;;;32.96;31.59
13013;BME280;22580;57.670;12.006;2023-08-24T11:38:09;101228.56;;;32.59;31.62
13013;BME280;22580;57.670;12.006;2023-08-24T11:40:36;101241.97;;;33.42;31.48
13013;BME280;22580;57.670;12.006;2023-08-24T11:43:04;101218.75;;;33.32;30.05
13013;BME280;22580;57.670;12.006;2023-08-24T11:45:31;101230.97;;;33.47;30.84
13013;BME280;22580;57.670;12.006;2023-08-24T11:47:59;101229.66;;;32.46;31.49
13013;BME280;22580;57.670;12.006;2023-08-24T11:50:28;101231.34;;;32.01;32.67
13013;BME280;22580;57.670;12.006;2023-08-24T11:52:57;101238.53;;;32.13;31.97
13013;BME280;22580;57.670;12.006;2023-08-24T11:55:25;101246.88;;;32.48;31.72
13013;BME280;22580;57.670;12.006;2023-08-24T11:57:53;101235.91;;;31.65;32.62
13013;BME280;22580;57.670;12.006;2023-08-24T12:00:21;101239.63;;;32.12;32.07
13013;BME280;22580;57.670;12.006;2023-08-24T12:02:49;101226.78;;;32.76;31.43
13013;BME280;22580;57.670;12.006;2023-08-24T12:05:21;101231.69;;;32.63;31.49
13013;BME280;22580;57.670;12.006;2023-08-24T12:07:49;101238.91;;;30.85;33.65
13013;BME280;22580;57.670;12.006;2023-08-24T12:10:17;101227.44;;;31.78;33.05
13013;BME280;22580;57.670;12.006;2023-08-24T12:12:44;101221.72;;;32.03;31.93
13013;BME280;22580;57.670;12.006;2023-08-24T12:15:18;101227.00;;;31.63;32.56
13013;BME280;22580;57.670;12.006;2023-08-24T12:17:46;101229.19;;;33.01;31.27
13013;BME280;22580;57.670;12.006;2023-08-24T12:20:20;101229.50;;;33.16;31.06
13013;BME280;22580;57.670;12.006;2023-08-24T12:22:50;101231.91;;;33.53;29.17
13013;BME280;22580;57.670;12.006;2023-08-24T12:25:21;101228.50;;;33.79;28.78
13013;BME280;22580;57.670;12.006;2023-08-24T12:27:50;101222.56;;;34.04;29.33
13013;BME280;22580;57.670;12.006;2023-08-24T12:30:17;101228.09;;;34.04;28.54
13013;BME280;22580;57.670;12.006;2023-08-24T12:32:45;101224.75;;;33.40;28.46
13013;BME280;22580;57.670;12.006;2023-08-24T12:35:14;101210.28;;;32.46;31.03
13013;BME280;22580;57.670;12.006;2023-08-24T12:37:41;101227.47;;;33.12;29.61
13013;BME280;22580;57.670;12.006;2023-08-24T12:40:09;101236.31;;;33.37;30.40
13013;BME280;22580;57.670;12.006;2023-08-24T12:42:38;101217.38;;;33.46;29.80
13013;BME280;22580;57.670;12.006;2023-08-24T12:45:06;101232.94;;;33.64;30.43
13013;BME280;22580;57.670;12.006;2023-08-24T12:47:33;101237.75;;;33.85;30.02